Auburn, AL

10:06 AM CST on December 09, 2016 (GMT -0600)
EastLake | | Change Station

Elev 666 ft 32.57 °N, 85.43 °W | Updated 10 seconds ago

Clear
Clear
38.1 °F
Feels Like 38 °F
N
0.2
Wind Variable Wind from NNW
Gusts 2.5 mph

Today
High -- | Low -- °F
--% Chance of Precip.
Yesterday
High -- | Low -- °F
Precip. -- in
Pressure 30.59 in
Visibility 10.0 miles
Clouds Clear
Windchill 38 °F
Dew Point 16 °F
Humidity 41%
Rainfall 0.00 in
Snow Depth Not available.
6:32 AM 4:36 PM
Waxing Gibbous, 75% visible
METAR KAUO 091556Z AUTO 36012G16KT 10SM CLR 03/M08 A3051 RMK AO2 SLP358 T00281083
Pressure 30.59 in
Visibility 10.0 miles
Clouds Clear
Windchill 38 °F
Dew Point 16 °F
Humidity 41%
Rainfall 0.00 in
Snow Depth Not available.
6:32 AM 4:36 PM
Waxing Gibbous, 75% visible
METAR KAUO 091556Z AUTO 36012G16KT 10SM CLR 03/M08 A3051 RMK AO2 SLP358 T00281083

10-Day Weather Forecast

Almanac

Astronomy

Dec. 09, 2016 Rise Set
Actual Time
Civil Twilight
Nautical Twilight
Astronomical Twilight
Moon
Length of Visible Light
Length of Day
Tomorrow will be .
, % of the Moon is Illuminated

Today's Extremes

State Highs State Lows

Community

WunderPhotos

Upload Photos

1,956,462 photos uploaded!

WunderBlog® & News

Nearby

Air Quality

  Air Quality AQ Index Pollutant
Not available.

Snow Depth

Station Depth Elevation

Earthquake Activity

City Distance Mag. Time & Date
Minimum magnitude displayed is 2.5.

Coastal Water Temperatures

Place Temperature

Stations

Nearby Weather Stations

Station Location Temp. Windchill Dew Point Humidity Wind Precip. Elev Updated Type
                   

Watches & Warnings

There are currently no watches in effect.